Weather observations for the past three days for
Appleton Municipal Airport
Imperial (Metric)
Date Time (cdt) Wind (mph) Vis. (mi.) Weather Sky Cond. Temperature (ºF) Relative Humidity Wind Chill (°F) Heat Index (°F) Pressure Precipitation (in)
Air Dwpt 6 hour altimeter (in) sea level (mb) 1 hr 3 hr 6 hr
Max. Min.
06 10:55 NW 12 10.00 Overcast OVC046 40.6 21.7 47% 34 30.06 0.0
06 10:35 NW 14 10.00 Overcast FEW039 OVC048 40.5 22.5 49% 33 30.07 0.0
06 10:15 NW 13 10.00 Overcast OVC048 39.7 22.3 50% 33 30.06 0.0
06 09:55 N 10 10.00 Overcast OVC048 39.2 23.7 54% 33 30.06 0.0
06 09:35 NW 12 10.00 Overcast OVC048 38.8 23.7 55% 32 30.06 0.0
06 09:15 N 9 10.00 Overcast OVC048 38.7 25.9 60% 33 30.06 0.0
06 08:55 NW 9 10.00 Overcast OVC048 37.9 25.2 60% 32 30.06 0.0
06 08:35 NW 9 10.00 Overcast OVC048 37.6 25.2 61% 32 30.06 0.0
06 08:15 NW 9 10.00 Overcast OVC047 37.4 25.2 61% 31 30.05 0.0
06 07:55 N 9 10.00 Overcast OVC047 37.4 24.8 60% 31 30.04 0.0
06 07:35 NW 8 9.00 Overcast OVC048 37.4 24.4 60% 32 30.04 0.0
06 07:15 NW 7 10.00 Overcast OVC048 36.9 25.9 65% 32 30.03 0.0
06 06:55 N 6 10.00 Overcast OVC048 36.7 26.6 38.1 32.4 67% 33 30.02 0.0
06 06:35 NW 6 9.00 Overcast OVC049 36.5 26.4 67% 32 30.01 0.0
06 06:15 NW 7 10.00 Overcast OVC049 36.7 25.5 64% 32 30.01 0.0
06 05:55 NW 7 10.00 Overcast OVC050 36.9 25 62% 32 30 0.0
06 05:35 N 6 10.00 Overcast OVC050 36.7 25 63% 33 30 0.0
06 05:15 N 6 10.00 Overcast OVC049 37 25.2 62% 33 30 0.0
06 04:55 NW 7 10.00 Overcast OVC050 37.2 25.3 62% 32 30 0.0
06 04:35 NW 9 10.00 Overcast OVC050 37.4 25.5 62% 31 30 0.0
06 04:15 NW 7 10.00 Overcast OVC050 37.2 26.2 65% 32 29.99 0.0
06 03:55 NW 8 10.00 Overcast OVC050 37.6 26.4 64% 32 29.99 0.0
06 03:35 NW 8 10.00 Overcast OVC050 37.6 26.2 64% 32 29.99 0.0
06 03:15 NW 8 10.00 Overcast OVC050 37.6 26.4 64% 32 29.99 0.0
06 02:55 NW 10 10.00 Overcast OVC055 37.9 25.3 61% 32 29.99 0.0
06 02:35 N 12 10.00 Overcast OVC050 37.9 25.3 61% 31 29.98 0.0
06 02:15 NW 9 10.00 Overcast OVC050 37.8 26.2 63% 32 29.99 0.0
06 01:55 NW 8 10.00 Overcast OVC055 36.3 27.1 69% 31 29.99 0.0
06 01:35 NW 6 10.00 Overcast OVC055 34.3 26.2 72% 30 29.98 0.0
06 01:15 NW 7 10.00 Overcast OVC055 33.1 25 72% 28 29.99 0.0
06 00:55 NW 9 10.00 Mostly Cloudy BKN055 33.1 24.3 45.1 32.7 70% 26 29.99 0.0
06 00:35 NW 7 10.00 Partly Cloudy SCT055 33.8 24.3 68% 28 29.98 0.0
06 00:15 NW 8 10.00 Fair CLR 34.2 24.1 67% 28 29.98 0.0
05 23:55 NW 7 10.00 Fair CLR 34.7 24.1 65% 29 29.97 0.0
05 23:35 N 8 10.00 Partly Cloudy SCT070 35.6 23.9 62% 30 29.98 0.0
05 23:15 NW 9 10.00 Overcast OVC070 37.9 24.8 59% 32 29.98 0.0
05 22:55 N 8 10.00 Overcast OVC070 38.7 25.5 59% 34 29.97 0.0
05 22:35 N 6 10.00 Overcast OVC070 38.3 25.3 60% 34 29.96 0.0
05 22:15 N 7 10.00 Overcast OVC070 38.1 24.8 59% 34 29.96 0.0
05 21:55 N 8 9.00 Mostly Cloudy BKN075 37 24.4 60% 32 29.95 0.0
05 21:35 N 9 9.00 Mostly Cloudy BKN075 38.1 24.3 57% 32 29.95 0.0
05 21:15 N 7 8.00 Overcast OVC075 38.3 24.4 57% 34 29.94 0.0
05 20:55 N 10 6.00 Overcast with Haze OVC075 40.3 23 50% 34 29.94 0.0
05 20:35 N 10 8.00 Mostly Cloudy FEW060 BKN075 41 22.5 48% 35 29.93 0.0
05 20:15 N 13 8.00 Partly Cloudy SCT065 42.6 22.8 45% 37 29.93 0.0
05 19:55 N 15 9.00 Partly Cloudy SCT070 43.5 22.1 43% 37 29.92 0.0
05 19:35 N 17 9.00 Overcast OVC065 45 22.1 40% 38 29.92 0.0
05 19:15 N 18 8.00 Mostly Cloudy BKN065 45 22.6 41% 38 29.92 0.0
05 18:55 NW 16 G 24 9.00 Mostly Cloudy BKN065 46.8 22.5 50.5 45.9 38% 41 29.91 0.0
05 18:35 NW 17 10.00 Mostly Cloudy FEW060 BKN075 46 22.8 40% 40 29.91 0.0
05 18:15 N 17 10.00 Overcast OVC070 47.5 22.8 38% 41 29.91 0.0
05 17:55 NW 18 8.00 Overcast OVC060 46.4 23 40% 40 29.91 0.0
05 17:35 N 20 9.00 Overcast OVC065 46.4 22.5 39% 40 29.9 0.0
05 17:15 N 15 9.00 Overcast BKN060 OVC070 46.6 22.8 39% 41 29.9 0.0
05 16:55 NW 13 9.00 Overcast OVC060 47.1 23.4 39% 42 29.9 0.0
05 16:35 N 17 10.00 Overcast OVC060 46.9 22.6 38% 41 29.9 0.0
05 16:15 N 14 10.00 Overcast OVC065 47.3 23.4 39% 42 29.9 0.0
05 15:55 NW 18 9.00 Overcast OVC065 48.2 22.5 36% 42 29.9 0.0
05 15:35 NW 21 G 26 10.00 Overcast and Breezy OVC065 48.9 22.6 36% 43 29.89 0.0
05 15:15 NW 18 G 24 9.00 Overcast OVC060 50 23.4 35% 44 29.89 0.0
05 14:55 NW 17 10.00 Overcast BKN060 OVC075 48.4 22.1 35% 43 29.89 0.0
05 14:35 NW 20 G 25 10.00 Overcast BKN060 OVC075 48.6 21.9 35% 42 29.89 0.0
05 14:15 NW 22 G 30 10.00 Overcast and Breezy OVC065 48.6 21.9 35% 42 29.89 0.0
05 13:55 NW 20 G 29 10.00 Overcast OVC060 47.8 21.2 35% 41 29.89 0.0
05 13:35 NW 18 10.00 Overcast OVC065 48.6 21.4 34% 43 29.89 0.0
05 13:15 NW 18 G 24 10.00 Overcast OVC070 48.7 20.8 33% 43 29.89 0.0
05 12:55 NW 20 10.00 Overcast OVC070 49.5 20.8 49.5 31.5 32% 43 29.88 0.0
05 12:35 NW 17 10.00 Overcast OVC065 48.2 21.2 34% 42 29.89 0.0
05 12:15 NW 21 G 26 10.00 Overcast and Breezy OVC060 48 21.7 35% 41 29.89 0.0
05 11:55 NW 18 G 26 10.00 Overcast OVC060 47.7 21.4 35% 41 29.88 0.0
05 11:35 NW 15 10.00 Overcast OVC065 47.3 21 35% 42 29.88 0.0
05 11:15 NW 21 G 26 9.00 Overcast and Breezy OVC060 47.5 21.2 35% 41 29.88 0.0
05 10:55 NW 18 G 25 10.00 Mostly Cloudy BKN060 47.3 20.7 35% 41 29.88 0.0
05 10:35 NW 18 10.00 Partly Cloudy SCT055 48.4 21.2 34% 42 29.87 0.0
05 10:15 NW 17 G 28 10.00 Partly Cloudy FEW049 SCT055 47.5 21.4 36% 41 29.88 0.0
05 09:55 NW 18 G 24 10.00 A Few Clouds FEW039 45.9 23.4 41% 39 29.88 0.0
05 09:35 NW 17 10.00 Fair CLR 45.5 27 48% 39 29.87 0.0
05 09:15 W 15 9.00 Fair CLR 44.2 28.2 53% 38 29.87 0.0
05 08:55 NW 9 9.00 Fair CLR 42.3 29.8 62% 37 29.86 0.0
05 08:35 NW 10 9.00 Fair CLR 41.2 29.1 62% 36 29.86 0.0
05 08:15 NW 7 9.00 Fair CLR 39.9 30.9 70% 36 29.85 0.0
05 07:55 W 5 8.00 Fair CLR 38.1 30.9 75% 35 29.85 0.0
05 07:35 W 5 7.00 Fair CLR 36.5 31.1 81% 33 29.84 0.0
05 07:15 Calm 8.00 Fair CLR 34.2 30 85% 29.83 0.0
05 06:55 W 5 7.00 Fair CLR 30.7 27.1 34.7 28.2 87% 27 29.82 0.0
05 06:35 W 5 7.00 Fair CLR 29.7 26.4 88% 25 29.82 0.0
05 05:55 NW 8 8.00 Partly Cloudy FEW060 SCT080 30.4 27.1 88% 24 29.81 0.0
05 05:35 NW 8 8.00 A Few Clouds FEW080 31.6 27.7 85% 25 29.81 0.0
05 05:15 NW 8 8.00 Fair CLR 29.7 26.4 88% 23 29.81 0.0
05 04:55 NW 6 8.00 Fair CLR 28.2 25 88% 23 29.81 0.0
05 04:35 NW 7 8.00 Fair CLR 29.3 25.5 86% 23 29.8 0.0
05 04:15 W 7 8.00 Fair CLR 30.6 26.1 83% 25 29.8 0.0
05 03:55 W 6 9.00 Partly Cloudy SCT070 30.7 26.6 85% 26 29.8 0.0
05 03:35 W 5 9.00 A Few Clouds FEW075 32.2 27.3 82% 28 29.79 0.0
05 03:15 NW 7 9.00 A Few Clouds FEW070 32.2 26.1 78% 26 29.79 0.0
05 02:55 NW 7 8.00 Fair CLR 30.7 25.3 80% 25 29.79 0.0
05 02:35 NW 8 9.00 Fair CLR 31.5 25.7 79% 25 29.79 0.0
05 02:15 NW 7 9.00 Fair CLR 31.1 25.5 80% 25 29.79 0.0
05 01:55 NW 5 9.00 Fair CLR 33.8 26.2 74% 30 29.79 0.0
05 01:35 NW 6 9.00 Fair CLR 33.8 26.6 75% 29 29.79 0.0
05 01:15 NW 6 9.00 Fair CLR 33.8 27.1 77% 29 29.79 0.0
05 00:55 W 7 9.00 Fair CLR 36.3 28 51.6 34.3 72% 31 29.78 0.0
05 00:35 W 7 9.00 A Few Clouds FEW065 35.1 27 72% 30 29.78 0.0
05 00:15 W 6 9.00 Fair CLR 34.3 26.8 74% 30 29.77 0.0
04 23:55 W 6 9.00 Fair CLR 36 27.3 71% 32 29.77 0.0
04 23:35 W 6 9.00 Fair CLR 36.3 27.3 70% 32 29.77 0.0
04 23:15 NW 7 9.00 Fair CLR 37.9 27.3 66% 33 29.76 0.0
04 22:55 NW 9 10.00 Fair CLR 40.1 28.4 63% 35 29.77 0.0
04 22:35 NW 9 9.00 A Few Clouds FEW085 41.2 28 60% 36 29.76 0.0
04 22:15 NW 9 10.00 Partly Cloudy SCT085 41.5 28 59% 36 29.76 0.0
04 21:55 NW 8 10.00 A Few Clouds FEW090 42.8 28 56% 39 29.75 0.0
04 21:35 NW 10 10.00 Partly Cloudy SCT085 45 27.3 50% 40 29.75 0.0
04 21:15 NW 12 9.00 Overcast OVC085 46 27 47% 41 29.74 0.0
04 20:55 NW 14 9.00 Overcast FEW060 OVC085 46.9 26.1 44% 42 29.73 0.0
04 20:35 NW 14 9.00 Mostly Cloudy BKN080 47.7 25.7 42% 42 29.73 0.0
04 20:15 NW 13 10.00 A Few Clouds FEW080 48.2 25.5 41% 43 29.72 0.0
04 19:55 NW 20 10.00 Fair CLR 49.8 25 38% 44 29.71 0.0
04 19:35 NW 23 G 29 10.00 Fair and Breezy CLR 50.5 24.6 36% 29.71 0.0
04 19:15 NW 22 G 31 9.00 A Few Clouds and Breezy FEW070 51.3 24.3 35% 29.71 0.0
04 18:55 NW 28 G 38 10.00 Mostly Cloudy and Windy BKN070 51.6 23.2 56.8 50.9 33% 29.71 0.0
04 18:35 NW 23 G 33 10.00 Mostly Cloudy and Breezy SCT070 BKN220 51.3 24.3 35% 29.71 0.0
04 18:15 NW 24 G 32 10.00 Overcast and Breezy FEW065 OVC220 51.3 23.5 34% 29.71 0.0
04 17:55 NW 23 G 33 10.00 Mostly Cloudy and Breezy BKN065 BKN210 51.1 23.9 35% 29.71 0.0
04 17:35 NW 22 G 36 10.00 Mostly Cloudy and Breezy BKN065 BKN210 51.8 23.5 33% 29.71 0.0
04 17:15 NW 30 G 39 10.00 Mostly Cloudy and Windy BKN065 52 22.8 32% 29.7 0.0
04 16:55 NW 30 G 36 10.00 Mostly Cloudy and Windy BKN065 53.1 24.3 33% 29.7 0.0
04 16:35 NW 28 G 35 10.00 Mostly Cloudy and Windy BKN065 54.3 24.6 32% 29.69 0.0
04 16:15 NW 26 G 37 10.00 Mostly Cloudy and Windy BKN065 53.1 24.4 33% 29.68 0.0
04 15:55 NW 28 G 37 10.00 Mostly Cloudy and Windy BKN060 53.2 25.5 34% 29.68 0.0
04 15:35 NW 29 G 36 10.00 Mostly Cloudy and Windy BKN060 53.4 26.2 35% 29.68 0.0
04 15:15 NW 28 G 40 10.00 Mostly Cloudy and Windy BKN055 53.8 26.2 35% 29.67 0.0
04 14:55 NW 26 G 33 10.00 Overcast and Windy OVC055 53.2 27.9 38% 29.67 0.0
04 14:35 NW 31 G 37 10.00 Overcast and Windy OVC050 54.1 28.2 37% 29.67 0.0
04 14:15 NW 28 G 37 10.00 Overcast and Windy OVC050 52.9 29.3 40% 29.67 0.0
04 13:55 NW 26 G 37 10.00 Overcast and Windy OVC050 53.6 30 41% 29.66 0.0
04 13:35 NW 32 G 38 10.00 Overcast and Windy OVC050 54.7 30 39% 29.65 0.0
04 13:15 NW 29 G 38 10.00 Mostly Cloudy and Windy BKN050 55.4 30.9 39% 29.64 0.0
04 12:55 NW 29 G 37 10.00 A Few Clouds and Windy FEW049 56.8 31.1 56.8 50.2 38% 29.62 0.0
04 12:35 NW 26 G 36 10.00 Mostly Cloudy and Windy SCT048 BKN140 56.1 31.6 40% 29.62 0.0
04 12:15 NW 25 G 39 10.00 Mostly Cloudy and Breezy FEW048 BKN140 55.8 30.9 39% 29.63 0.0
04 11:55 NW 25 G 35 10.00 Partly Cloudy and Breezy SCT140 55.6 32 41% 29.62 0.0
04 11:35 NW 29 G 33 10.00 Fair and Windy CLR 55.2 31.3 40% 29.61 0.0
04 11:15 NW 28 G 36 10.00 A Few Clouds and Windy FEW110 54.9 31.6 41% 29.6 0.0
04 10:55 NW 26 G 35 10.00 Mostly Cloudy and Windy SCT095 BKN120 54.7 31.6 42% 29.6 0.0
04 10:35 NW 26 G 33 10.00 Overcast and Windy OVC100 53.1 30.9 43% 29.59 0.0
04 10:15 NW 28 G 39 10.00 Mostly Cloudy and Windy BKN100 BKN120 55.2 31.6 41% 29.58 0.0
04 09:55 NW 30 G 37 10.00 Partly Cloudy and Windy FEW120 SCT200 55 31.1 40% 29.58 0.0
04 09:35 NW 28 G 35 10.00 Mostly Cloudy and Windy BKN120 55.2 33.4 44% 29.58 0.0
04 09:15 NW 24 G 33 10.00 Mostly Cloudy and Breezy BKN120 54.7 34.9 47% 29.56 0.0
04 08:55 NW 30 G 37 9.00 Overcast and Windy BKN120 OVC140 54.1 36 50% 29.55 0.0
04 08:35 NW 28 G 32 10.00 Overcast and Windy OVC130 54.7 37.4 52% 29.55 0.0
04 08:15 NW 24 G 29 10.00 Overcast and Breezy OVC130 54.3 38.1 54% 29.55 0.0
04 07:55 NW 14 10.00 Mostly Cloudy BKN130 51.8 39 62% 29.54 0.0
04 07:35 W 16 9.00 Mostly Cloudy BKN140 51.1 39 64% 29.54 0.0
04 07:15 W 14 9.00 Mostly Cloudy BKN150 50.5 39.4 66% 29.53 0.0
04 06:55 W 8 8.00 A Few Clouds FEW150 50 39.9 61.9 49.8 68% 47 29.51 0.0
04 06:35 NW 12 9.00 Fair CLR 50.2 39.2 66% 29.51 0.0
04 06:15 NW 12 9.00 Fair CLR 50.2 38.8 65% 29.5 0.0
04 05:55 NW 12 9.00 Fair CLR 50.5 39 65% 29.49 0.0
04 05:35 NW 13 10.00 Fair CLR 50.9 38.8 64% 29.48 0.0
04 05:15 N 16 9.00 A Few Clouds FEW190 52.2 39 61% 29.47 0.0
04 04:55 N 21 G 37 10.00 A Few Clouds and Breezy FEW130 54.5 38.8 56% 29.46 0.0
04 04:35 W 24 10.00 Partly Cloudy and Breezy SCT130 61.3 37.4 41% 29.45 0.0
04 04:15 W 22 10.00 Overcast and Breezy SCT110 OVC140 60.4 35.4 39% 29.44 0.0
04 03:55 SW 24 10.00 Overcast and Breezy SCT130 OVC210 61.5 35.1 37% 29.41 0.0
04 03:35 SW 20 G 26 10.00 Mostly Cloudy BKN210 61 34.9 38% 29.41 0.0
04 03:15 SW 17 10.00 A Few Clouds FEW210 59.5 34.9 40% 29.42 0.0
04 02:55 SW 17 10.00 Partly Cloudy SCT220 58.8 33.8 39% 29.43 0.0
04 02:35 SW 17 10.00 Mostly Cloudy BKN220 58.8 33.6 39% 29.44 0.0
04 02:15 SW 15 10.00 A Few Clouds FEW220 58.1 33.6 40% 29.45 0.0
04 01:55 SW 14 10.00 Fair CLR 57 32.9 40% 29.46 0.0
04 01:35 SW 14 10.00 Fair CLR 56.8 31.6 38% 29.47 0.0
04 01:15 SW 15 10.00 Fair CLR 57.4 30.6 36% 29.48 0.0
04 00:55 SW 15 10.00 Fair CLR 57.6 29.8 70 56.5 35% 29.5 0.0
04 00:35 SW 16 10.00 Fair CLR 58.1 29.1 33% 29.51 0.0
04 00:15 SW 12 10.00 Fair CLR 57.4 30.6 36% 29.52 0.0
03 23:55 SW 12 10.00 A Few Clouds FEW210 57.2 31.1 37% 29.54 0.0
03 23:35 SW 12 10.00 A Few Clouds FEW210 58.1 30.6 35% 29.55 0.0
03 23:15 SW 10 10.00 Fair CLR 57.9 30.6 35% 29.56 0.0
03 22:55 SW 12 10.00 Fair CLR 58.6 31.5 36% 29.57 0.0
03 22:35 SW 12 10.00 A Few Clouds FEW340 59.4 31.1 34% 29.58 0.0
03 22:15 SW 13 10.00 A Few Clouds FEW340 59.7 30.9 34% 29.59 0.0
03 21:55 SW 10 10.00 Fair CLR 60.8 30.7 32% 29.61 0.0
03 21:35 SW 10 10.00 Fair CLR 60.8 30.7 32% 29.61 0.0
03 21:15 SW 8 10.00 Fair CLR 59.2 33.3 38% 29.62 0.0
03 20:55 SW 7 10.00 Fair CLR 62.2 32.7 33% 29.63 0.0
03 20:35 SW 8 10.00 Fair CLR 61.5 33.1 34% 29.63 0.0
03 20:15 W 8 10.00 Fair CLR 61.3 33.8 36% 29.64 0.0
03 19:55 W 8 10.00 Fair CLR 67.1 30.6 26% 29.65 0.0
03 19:35 W 12 10.00 Fair CLR 68.7 29.8 23% 29.65 0.0
03 19:15 W 15 10.00 Fair CLR 68.7 28.4 22% 29.66 0.0
03 18:55 W 16 10.00 Fair CLR 69.6 27.1 71.2 65.5 20% 29.67 0.0
03 18:35 W 18 G 22 10.00 Fair CLR 71.1 27.7 20% 29.67 0.0
03 18:15 W 15 G 20 10.00 A Few Clouds FEW330 71.1 28.9 21% 29.67 0.0
03 17:55 W 16 10.00 Fair CLR 71.1 29.3 21% 29.68 0.0
03 17:35 W 12 10.00 Fair CLR 70.9 29.7 22% 29.69 0.0
03 17:15 NW 15 10.00 Fair CLR 70.7 29.5 22% 29.7 0.0
03 16:55 NW 14 G 20 10.00 Fair CLR 70.9 29.7 22% 29.71 0.0
03 16:35 NW 14 10.00 Fair CLR 70.3 29.8 22% 29.71 0.0
03 16:15 NW 15 G 21 10.00 Fair CLR 70.2 29.3 22% 29.72 0.0
03 15:55 NW 9 10.00 Fair CLR 70.2 31.3 24% 29.73 0.0
03 15:35 NW 13 10.00 Fair CLR 69.8 31.5 24% 29.74 0.0
03 15:15 NW 14 10.00 Fair CLR 68.7 30.7 24% 29.75 0.0
03 14:55 W 14 10.00 Fair CLR 67.8 31.5 26% 29.77 0.0
03 14:35 NW 13 G 21 10.00 Fair CLR 67.6 32.4 27% 29.77 0.0
03 14:15 NW 15 G 20 10.00 Fair CLR 67.3 32.9 28% 29.78 0.0
03 13:55 NW 13 10.00 Fair CLR 66.7 33.6 29% 29.79 0.0
03 13:35 NW 18 10.00 Fair CLR 66.7 34 30% 29.8 0.0
03 13:15 N 16 10.00 Fair CLR 66.2 33.6 30% 29.81 0.0
03 12:55 NW 20 G 24 10.00 Fair CLR 65.7 33.4 65.8 45.5 30% 29.82 0.0
03 12:35 NW 17 10.00 Fair CLR 65.5 33.4 30% 29.82 0.0
03 12:15 NW 18 10.00 Fair CLR 64.4 33.4 32% 29.83 0.0
03 11:55 NW 15 G 21 10.00 Fair CLR 64 33.3 32% 29.83 0.0
03 11:35 N 15 10.00 Fair CLR 63.5 32.9 32% 29.83 0.0
03 11:15 N 15 10.00 Fair CLR 61.9 33.6 35% 29.84 0.0
Date Time (cdt) Wind (mph) Vis. (mi.) Weather Sky Cond. Air Dwpt Max. Min. Relative Humidity Wind Chill (°F) Heat Index (°F) altimeter (in) sea level (mb) 1 hr 3 hr 6 hr
6 hour
Temperature (ºF) Pressure Precipitation (in)